KMLS/MLS METAR and TAF weather

Enter ICAO airport designator
Station Type Date Time Source
KMLS METAR 2021/07/24 19:53 UTC NOAA

KMLS 241953Z AUTO VRB05KT 7SM CLR 32/M03 A3009 RMK AO2 SLP167 T03221033


Station Type Date Time Source
KMLS Decoded METAR 2021/07/24 19:53 UTC NOAA

MILES CITY WILEY FIELD, MT, United States (KMLS) 46-26N 105-53W 801M
Jul 24, 2021 - 03:53 PM EDT / 2021.07.24 1953 UTC
Wind: Variable at 6 MPH (5 KT):0
Visibility: 7 mile(s):0
Sky conditions: clear
Temperature: 90.0 F (32.2 C)
Dew Point: 26.1 F (-3.3 C)
Relative Humidity: 9%
Pressure (altimeter): 30.09 in. Hg (1018 hPa)
ob: KMLS 241953Z AUTO VRB05KT 7SM CLR 32/M03 A3009 RMK AO2 SLP167 T03221033
cycle: 20

Station Type Date Time Source
KMLS TAF 2021/07/24 18:22 UTC NOAA

TAF KMLS 241720Z 2418/2518 VRB06KT P6SM SKC

Example: see airport list